sensor_id;sensor_type;location;lat;lon;timestamp;P1;durP1;ratioP1;P2;durP2;ratioP2
17365;SDS011;8800;50.118;9.900;2023-09-19T00:00:31;0.90;;;0.60;;
17365;SDS011;8800;50.118;9.900;2023-09-19T00:02:59;2.38;;;0.80;;
17365;SDS011;8800;50.118;9.900;2023-09-19T00:05:27;1.98;;;0.75;;
17365;SDS011;8800;50.118;9.900;2023-09-19T00:07:55;2.35;;;0.80;;
17365;SDS011;8800;50.118;9.900;2023-09-19T00:10:23;4.30;;;0.80;;
17365;SDS011;8800;50.118;9.900;2023-09-19T00:12:50;1.92;;;0.82;;
17365;SDS011;8800;50.118;9.900;2023-09-19T00:15:18;4.35;;;0.80;;
17365;SDS011;8800;50.118;9.900;2023-09-19T00:17:45;1.17;;;0.65;;
17365;SDS011;8800;50.118;9.900;2023-09-19T00:20:12;1.70;;;0.85;;
17365;SDS011;8800;50.118;9.900;2023-09-19T00:22:42;1.00;;;0.80;;
17365;SDS011;8800;50.118;9.900;2023-09-19T00:25:09;3.90;;;0.93;;
17365;SDS011;8800;50.118;9.900;2023-09-19T00:27:37;3.45;;;0.80;;
17365;SDS011;8800;50.118;9.900;2023-09-19T00:30:06;1.40;;;0.70;;
17365;SDS011;8800;50.118;9.900;2023-09-19T00:32:38;3.05;;;1.05;;
17365;SDS011;8800;50.118;9.900;2023-09-19T00:35:05;2.33;;;0.98;;
17365;SDS011;8800;50.118;9.900;2023-09-19T00:37:31;1.67;;;1.10;;
17365;SDS011;8800;50.118;9.900;2023-09-19T00:39:59;1.38;;;0.80;;
17365;SDS011;8800;50.118;9.900;2023-09-19T00:42:26;3.15;;;1.08;;
17365;SDS011;8800;50.118;9.900;2023-09-19T00:44:53;5.53;;;0.80;;
17365;SDS011;8800;50.118;9.900;2023-09-19T00:47:19;3.03;;;0.90;;
17365;SDS011;8800;50.118;9.900;2023-09-19T00:49:46;3.78;;;0.80;;
17365;SDS011;8800;50.118;9.900;2023-09-19T00:52:15;4.25;;;0.90;;
17365;SDS011;8800;50.118;9.900;2023-09-19T00:54:44;1.92;;;0.90;;
17365;SDS011;8800;50.118;9.900;2023-09-19T00:57:12;1.42;;;0.90;;
17365;SDS011;8800;50.118;9.900;2023-09-19T00:59:40;3.05;;;0.80;;
17365;SDS011;8800;50.118;9.900;2023-09-19T01:02:07;1.70;;;1.00;;
17365;SDS011;8800;50.118;9.900;2023-09-19T01:04:34;3.92;;;0.90;;
17365;SDS011;8800;50.118;9.900;2023-09-19T01:07:00;3.75;;;0.95;;
17365;SDS011;8800;50.118;9.900;2023-09-19T01:09:27;2.08;;;0.82;;
17365;SDS011;8800;50.118;9.900;2023-09-19T01:11:55;3.45;;;0.90;;
17365;SDS011;8800;50.118;9.900;2023-09-19T01:14:28;5.80;;;1.13;;
17365;SDS011;8800;50.118;9.900;2023-09-19T01:17:00;2.72;;;0.68;;
17365;SDS011;8800;50.118;9.900;2023-09-19T01:19:42;3.65;;;1.35;;
17365;SDS011;8800;50.118;9.900;2023-09-19T01:22:16;4.88;;;1.30;;
17365;SDS011;8800;50.118;9.900;2023-09-19T01:25:07;3.53;;;1.25;;
17365;SDS011;8800;50.118;9.900;2023-09-19T01:28:02;3.13;;;1.30;;
17365;SDS011;8800;50.118;9.900;2023-09-19T01:30:35;3.13;;;1.00;;
17365;SDS011;8800;50.118;9.900;2023-09-19T01:33:02;1.60;;;0.88;;
17365;SDS011;8800;50.118;9.900;2023-09-19T01:35:31;4.13;;;1.00;;
17365;SDS011;8800;50.118;9.900;2023-09-19T01:37:59;4.35;;;1.00;;
17365;SDS011;8800;50.118;9.900;2023-09-19T01:40:26;1.00;;;0.88;;
17365;SDS011;8800;50.118;9.900;2023-09-19T01:42:54;1.92;;;0.68;;
17365;SDS011;8800;50.118;9.900;2023-09-19T01:45:24;1.60;;;0.85;;
17365;SDS011;8800;50.118;9.900;2023-09-19T01:47:55;2.25;;;0.90;;
17365;SDS011;8800;50.118;9.900;2023-09-19T01:50:30;2.83;;;1.00;;
17365;SDS011;8800;50.118;9.900;2023-09-19T01:52:59;3.58;;;0.85;;
17365;SDS011;8800;50.118;9.900;2023-09-19T01:55:29;2.50;;;0.88;;
17365;SDS011;8800;50.118;9.900;2023-09-19T01:58:00;1.63;;;0.82;;
17365;SDS011;8800;50.118;9.900;2023-09-19T02:00:27;1.67;;;0.85;;
17365;SDS011;8800;50.118;9.900;2023-09-19T02:02:57;0.90;;;0.73;;
17365;SDS011;8800;50.118;9.900;2023-09-19T02:05:25;4.68;;;1.00;;
17365;SDS011;8800;50.118;9.900;2023-09-19T02:07:52;4.38;;;0.80;;
17365;SDS011;8800;50.118;9.900;2023-09-19T02:10:19;3.20;;;0.80;;
17365;SDS011;8800;50.118;9.900;2023-09-19T02:12:45;2.08;;;0.90;;
17365;SDS011;8800;50.118;9.900;2023-09-19T02:15:12;2.10;;;1.02;;
17365;SDS011;8800;50.118;9.900;2023-09-19T02:17:41;2.67;;;1.00;;
17365;SDS011;8800;50.118;9.900;2023-09-19T02:20:09;1.85;;;0.90;;
17365;SDS011;8800;50.118;9.900;2023-09-19T02:22:40;2.50;;;1.10;;
17365;SDS011;8800;50.118;9.900;2023-09-19T02:25:07;4.95;;;1.20;;
17365;SDS011;8800;50.118;9.900;2023-09-19T02:27:33;3.03;;;1.13;;
17365;SDS011;8800;50.118;9.900;2023-09-19T02:30:01;3.28;;;1.00;;
17365;SDS011;8800;50.118;9.900;2023-09-19T02:32:29;2.60;;;1.10;;
17365;SDS011;8800;50.118;9.900;2023-09-19T02:34:56;1.63;;;0.88;;
17365;SDS011;8800;50.118;9.900;2023-09-19T02:37:25;2.90;;;1.13;;
17365;SDS011;8800;50.118;9.900;2023-09-19T02:39:52;2.97;;;1.20;;
17365;SDS011;8800;50.118;9.900;2023-09-19T02:42:19;3.60;;;1.10;;
17365;SDS011;8800;50.118;9.900;2023-09-19T02:44:46;1.92;;;1.00;;
17365;SDS011;8800;50.118;9.900;2023-09-19T02:47:13;1.48;;;1.10;;
17365;SDS011;8800;50.118;9.900;2023-09-19T02:49:42;3.65;;;1.20;;
17365;SDS011;8800;50.118;9.900;2023-09-19T02:52:08;1.52;;;0.88;;
17365;SDS011;8800;50.118;9.900;2023-09-19T02:54:37;3.15;;;1.23;;
17365;SDS011;8800;50.118;9.900;2023-09-19T02:57:04;6.70;;;1.23;;
17365;SDS011;8800;50.118;9.900;2023-09-19T02:59:31;5.47;;;1.75;;
17365;SDS011;8800;50.118;9.900;2023-09-19T03:01:58;6.95;;;2.42;;
17365;SDS011;8800;50.118;9.900;2023-09-19T03:04:25;5.40;;;2.10;;
17365;SDS011;8800;50.118;9.900;2023-09-19T03:06:53;5.57;;;1.88;;
17365;SDS011;8800;50.118;9.900;2023-09-19T03:09:23;3.83;;;1.40;;
17365;SDS011;8800;50.118;9.900;2023-09-19T03:11:51;3.08;;;1.35;;
17365;SDS011;8800;50.118;9.900;2023-09-19T03:14:19;3.75;;;1.67;;
17365;SDS011;8800;50.118;9.900;2023-09-19T03:16:46;4.20;;;1.55;;
17365;SDS011;8800;50.118;9.900;2023-09-19T03:19:13;3.53;;;1.90;;
17365;SDS011;8800;50.118;9.900;2023-09-19T03:21:40;6.60;;;2.00;;
17365;SDS011;8800;50.118;9.900;2023-09-19T03:24:07;4.22;;;1.77;;
17365;SDS011;8800;50.118;9.900;2023-09-19T03:26:34;2.58;;;1.55;;
17365;SDS011;8800;50.118;9.900;2023-09-19T03:29:04;3.00;;;1.65;;
17365;SDS011;8800;50.118;9.900;2023-09-19T03:31:33;1.83;;;1.50;;
17365;SDS011;8800;50.118;9.900;2023-09-19T03:34:02;3.72;;;1.70;;
17365;SDS011;8800;50.118;9.900;2023-09-19T03:36:29;3.70;;;1.60;;
17365;SDS011;8800;50.118;9.900;2023-09-19T03:38:56;2.53;;;1.38;;
17365;SDS011;8800;50.118;9.900;2023-09-19T03:41:22;3.72;;;1.67;;
17365;SDS011;8800;50.118;9.900;2023-09-19T03:43:49;3.03;;;1.60;;
17365;SDS011;8800;50.118;9.900;2023-09-19T03:46:17;3.28;;;1.88;;
17365;SDS011;8800;50.118;9.900;2023-09-19T03:48:44;5.38;;;1.52;;
17365;SDS011;8800;50.118;9.900;2023-09-19T03:51:11;3.83;;;1.70;;
17365;SDS011;8800;50.118;9.900;2023-09-19T03:53:38;4.25;;;1.77;;
17365;SDS011;8800;50.118;9.900;2023-09-19T03:56:04;3.75;;;1.70;;
17365;SDS011;8800;50.118;9.900;2023-09-19T03:58:31;2.85;;;1.73;;
17365;SDS011;8800;50.118;9.900;2023-09-19T04:01:00;6.00;;;1.70;;
17365;SDS011;8800;50.118;9.900;2023-09-19T04:03:29;3.35;;;1.70;;
17365;SDS011;8800;50.118;9.900;2023-09-19T04:06:00;3.72;;;1.70;;
17365;SDS011;8800;50.118;9.900;2023-09-19T04:08:27;4.00;;;1.77;;
17365;SDS011;8800;50.118;9.900;2023-09-19T04:10:54;3.65;;;1.70;;
17365;SDS011;8800;50.118;9.900;2023-09-19T04:13:22;5.22;;;1.80;;
17365;SDS011;8800;50.118;9.900;2023-09-19T04:15:48;2.70;;;1.50;;
17365;SDS011;8800;50.118;9.900;2023-09-19T04:18:15;5.45;;;1.90;;
17365;SDS011;8800;50.118;9.900;2023-09-19T04:20:48;4.10;;;1.73;;
17365;SDS011;8800;50.118;9.900;2023-09-19T04:23:15;5.82;;;1.88;;
17365;SDS011;8800;50.118;9.900;2023-09-19T04:25:42;7.40;;;1.77;;
17365;SDS011;8800;50.118;9.900;2023-09-19T04:28:08;4.22;;;1.83;;
17365;SDS011;8800;50.118;9.900;2023-09-19T04:30:36;2.78;;;1.60;;
17365;SDS011;8800;50.118;9.900;2023-09-19T04:33:03;7.05;;;1.67;;
17365;SDS011;8800;50.118;9.900;2023-09-19T04:35:29;3.65;;;1.60;;
17365;SDS011;8800;50.118;9.900;2023-09-19T04:37:58;4.60;;;1.73;;
17365;SDS011;8800;50.118;9.900;2023-09-19T04:40:25;5.55;;;1.80;;
17365;SDS011;8800;50.118;9.900;2023-09-19T04:42:55;3.83;;;2.10;;
17365;SDS011;8800;50.118;9.900;2023-09-19T04:45:22;3.78;;;1.77;;
17365;SDS011;8800;50.118;9.900;2023-09-19T04:47:49;3.13;;;1.80;;
17365;SDS011;8800;50.118;9.900;2023-09-19T04:50:15;2.10;;;1.60;;
17365;SDS011;8800;50.118;9.900;2023-09-19T04:52:42;4.32;;;1.85;;
17365;SDS011;8800;50.118;9.900;2023-09-19T04:55:11;2.38;;;1.67;;
17365;SDS011;8800;50.118;9.900;2023-09-19T04:57:41;3.28;;;1.77;;
17365;SDS011;8800;50.118;9.900;2023-09-19T05:00:08;3.42;;;2.00;;
17365;SDS011;8800;50.118;9.900;2023-09-19T05:02:38;5.80;;;2.03;;
17365;SDS011;8800;50.118;9.900;2023-09-19T05:05:05;2.78;;;1.83;;
17365;SDS011;8800;50.118;9.900;2023-09-19T05:07:33;3.97;;;2.13;;
17365;SDS011;8800;50.118;9.900;2023-09-19T05:10:00;3.00;;;1.90;;
17365;SDS011;8800;50.118;9.900;2023-09-19T05:12:28;3.78;;;1.67;;
17365;SDS011;8800;50.118;9.900;2023-09-19T05:14:54;3.75;;;1.80;;
17365;SDS011;8800;50.118;9.900;2023-09-19T05:17:21;5.38;;;1.70;;
17365;SDS011;8800;50.118;9.900;2023-09-19T05:19:48;3.72;;;2.03;;
17365;SDS011;8800;50.118;9.900;2023-09-19T05:22:14;4.72;;;2.22;;
17365;SDS011;8800;50.118;9.900;2023-09-19T05:24:41;3.22;;;1.90;;
17365;SDS011;8800;50.118;9.900;2023-09-19T05:27:08;2.72;;;1.67;;
17365;SDS011;8800;50.118;9.900;2023-09-19T05:29:36;3.20;;;1.58;;
17365;SDS011;8800;50.118;9.900;2023-09-19T05:32:03;3.20;;;1.60;;
17365;SDS011;8800;50.118;9.900;2023-09-19T05:34:31;3.80;;;1.85;;
17365;SDS011;8800;50.118;9.900;2023-09-19T05:36:57;3.17;;;1.58;;
17365;SDS011;8800;50.118;9.900;2023-09-19T05:39:24;4.90;;;1.58;;
17365;SDS011;8800;50.118;9.900;2023-09-19T05:41:50;2.70;;;1.50;;
17365;SDS011;8800;50.118;9.900;2023-09-19T05:44:17;3.63;;;1.60;;
17365;SDS011;8800;50.118;9.900;2023-09-19T05:46:45;5.22;;;1.75;;
17365;SDS011;8800;50.118;9.900;2023-09-19T05:49:13;2.88;;;1.80;;
17365;SDS011;8800;50.118;9.900;2023-09-19T05:51:41;6.03;;;1.67;;
17365;SDS011;8800;50.118;9.900;2023-09-19T05:54:07;3.95;;;1.75;;
17365;SDS011;8800;50.118;9.900;2023-09-19T05:56:34;3.15;;;1.58;;
17365;SDS011;8800;50.118;9.900;2023-09-19T05:59:01;2.25;;;1.45;;
17365;SDS011;8800;50.118;9.900;2023-09-19T06:01:28;2.90;;;1.58;;
17365;SDS011;8800;50.118;9.900;2023-09-19T06:03:57;6.03;;;1.60;;
17365;SDS011;8800;50.118;9.900;2023-09-19T06:06:25;5.32;;;1.58;;
17365;SDS011;8800;50.118;9.900;2023-09-19T06:08:52;2.47;;;1.40;;
17365;SDS011;8800;50.118;9.900;2023-09-19T06:11:19;5.35;;;1.70;;
17365;SDS011;8800;50.118;9.900;2023-09-19T06:13:45;7.10;;;1.90;;
17365;SDS011;8800;50.118;9.900;2023-09-19T06:16:13;4.68;;;1.52;;
17365;SDS011;8800;50.118;9.900;2023-09-19T06:18:40;3.53;;;1.58;;
17365;SDS011;8800;50.118;9.900;2023-09-19T06:21:07;5.90;;;1.88;;
17365;SDS011;8800;50.118;9.900;2023-09-19T06:23:34;6.10;;;1.90;;
17365;SDS011;8800;50.118;9.900;2023-09-19T06:26:01;3.33;;;1.45;;
17365;SDS011;8800;50.118;9.900;2023-09-19T06:28:28;9.20;;;1.50;;
17365;SDS011;8800;50.118;9.900;2023-09-19T06:30:55;3.13;;;1.50;;
17365;SDS011;8800;50.118;9.900;2023-09-19T06:33:22;12.13;;;1.88;;
17365;SDS011;8800;50.118;9.900;2023-09-19T06:35:49;3.33;;;1.33;;
17365;SDS011;8800;50.118;9.900;2023-09-19T06:38:25;4.22;;;1.40;;
17365;SDS011;8800;50.118;9.900;2023-09-19T06:40:52;4.97;;;1.67;;
17365;SDS011;8800;50.118;9.900;2023-09-19T06:43:19;2.65;;;1.70;;
17365;SDS011;8800;50.118;9.900;2023-09-19T06:45:45;3.85;;;1.50;;
17365;SDS011;8800;50.118;9.900;2023-09-19T06:48:12;2.83;;;1.38;;
17365;SDS011;8800;50.118;9.900;2023-09-19T06:50:40;4.80;;;1.70;;
17365;SDS011;8800;50.118;9.900;2023-09-19T06:53:09;4.07;;;1.58;;
17365;SDS011;8800;50.118;9.900;2023-09-19T06:55:37;2.58;;;1.23;;
17365;SDS011;8800;50.118;9.900;2023-09-19T06:58:04;4.80;;;1.65;;
17365;SDS011;8800;50.118;9.900;2023-09-19T07:00:31;3.05;;;1.38;;
17365;SDS011;8800;50.118;9.900;2023-09-19T07:03:01;2.85;;;1.58;;
17365;SDS011;8800;50.118;9.900;2023-09-19T07:05:29;3.28;;;1.30;;
17365;SDS011;8800;50.118;9.900;2023-09-19T07:07:56;4.28;;;1.20;;
17365;SDS011;8800;50.118;9.900;2023-09-19T07:10:24;3.75;;;1.20;;
17365;SDS011;8800;50.118;9.900;2023-09-19T07:12:57;4.80;;;1.30;;
17365;SDS011;8800;50.118;9.900;2023-09-19T07:15:24;2.80;;;1.33;;
17365;SDS011;8800;50.118;9.900;2023-09-19T07:17:51;3.90;;;1.30;;
17365;SDS011;8800;50.118;9.900;2023-09-19T07:20:19;4.45;;;1.33;;
17365;SDS011;8800;50.118;9.900;2023-09-19T07:22:45;3.05;;;1.48;;
17365;SDS011;8800;50.118;9.900;2023-09-19T07:25:13;3.47;;;1.05;;
17365;SDS011;8800;50.118;9.900;2023-09-19T07:27:40;2.38;;;1.10;;
17365;SDS011;8800;50.118;9.900;2023-09-19T07:30:08;4.25;;;1.23;;
17365;SDS011;8800;50.118;9.900;2023-09-19T07:32:37;4.53;;;1.30;;
17365;SDS011;8800;50.118;9.900;2023-09-19T07:35:04;3.05;;;1.20;;
17365;SDS011;8800;50.118;9.900;2023-09-19T07:37:30;3.28;;;1.38;;
17365;SDS011;8800;50.118;9.900;2023-09-19T07:39:58;6.78;;;1.27;;
17365;SDS011;8800;50.118;9.900;2023-09-19T07:42:24;3.53;;;1.33;;
17365;SDS011;8800;50.118;9.900;2023-09-19T07:44:51;5.38;;;1.20;;
17365;SDS011;8800;50.118;9.900;2023-09-19T07:47:20;2.75;;;1.10;;
17365;SDS011;8800;50.118;9.900;2023-09-19T07:49:47;3.17;;;1.20;;
17365;SDS011;8800;50.118;9.900;2023-09-19T07:52:14;1.38;;;1.10;;
17365;SDS011;8800;50.118;9.900;2023-09-19T07:54:40;3.42;;;1.30;;
17365;SDS011;8800;50.118;9.900;2023-09-19T07:57:09;4.50;;;1.23;;
17365;SDS011;8800;50.118;9.900;2023-09-19T07:59:36;3.28;;;1.20;;
17365;SDS011;8800;50.118;9.900;2023-09-19T08:02:03;3.30;;;1.20;;
17365;SDS011;8800;50.118;9.900;2023-09-19T08:04:32;4.47;;;1.20;;
17365;SDS011;8800;50.118;9.900;2023-09-19T08:06:59;2.25;;;1.02;;
17365;SDS011;8800;50.118;9.900;2023-09-19T08:09:28;4.13;;;1.20;;
17365;SDS011;8800;50.118;9.900;2023-09-19T08:11:58;3.10;;;1.10;;
17365;SDS011;8800;50.118;9.900;2023-09-19T08:14:27;3.33;;;1.50;;
17365;SDS011;8800;50.118;9.900;2023-09-19T08:16:56;3.42;;;1.15;;
17365;SDS011;8800;50.118;9.900;2023-09-19T08:19:22;4.88;;;1.50;;
17365;SDS011;8800;50.118;9.900;2023-09-19T08:21:54;4.20;;;1.35;;
17365;SDS011;8800;50.118;9.900;2023-09-19T08:24:21;1.33;;;1.10;;
17365;SDS011;8800;50.118;9.900;2023-09-19T08:26:48;3.28;;;1.30;;
17365;SDS011;8800;50.118;9.900;2023-09-19T08:29:16;4.32;;;1.30;;
17365;SDS011;8800;50.118;9.900;2023-09-19T08:31:43;4.25;;;1.30;;
17365;SDS011;8800;50.118;9.900;2023-09-19T08:34:10;3.53;;;1.38;;
17365;SDS011;8800;50.118;9.900;2023-09-19T08:36:36;2.92;;;1.02;;
17365;SDS011;8800;50.118;9.900;2023-09-19T08:39:06;5.18;;;1.17;;
17365;SDS011;8800;50.118;9.900;2023-09-19T08:41:34;3.30;;;1.42;;
17365;SDS011;8800;50.118;9.900;2023-09-19T08:44:00;1.75;;;0.98;;
17365;SDS011;8800;50.118;9.900;2023-09-19T08:46:28;4.20;;;1.40;;
17365;SDS011;8800;50.118;9.900;2023-09-19T08:48:57;3.38;;;1.30;;
17365;SDS011;8800;50.118;9.900;2023-09-19T08:51:30;4.32;;;1.50;;
17365;SDS011;8800;50.118;9.900;2023-09-19T08:53:58;3.40;;;1.17;;
17365;SDS011;8800;50.118;9.900;2023-09-19T08:56:31;3.55;;;1.30;;
17365;SDS011;8800;50.118;9.900;2023-09-19T08:58:59;3.28;;;1.15;;
17365;SDS011;8800;50.118;9.900;2023-09-19T09:01:27;3.55;;;1.15;;
17365;SDS011;8800;50.118;9.900;2023-09-19T09:03:54;4.28;;;1.38;;
17365;SDS011;8800;50.118;9.900;2023-09-19T09:06:21;3.22;;;1.17;;
17365;SDS011;8800;50.118;9.900;2023-09-19T09:08:48;5.28;;;1.20;;
17365;SDS011;8800;50.118;9.900;2023-09-19T09:11:16;2.80;;;1.13;;
17365;SDS011;8800;50.118;9.900;2023-09-19T09:13:44;4.90;;;1.30;;
17365;SDS011;8800;50.118;9.900;2023-09-19T09:16:11;4.07;;;1.35;;
17365;SDS011;8800;50.118;9.900;2023-09-19T09:18:38;7.10;;;1.58;;
17365;SDS011;8800;50.118;9.900;2023-09-19T09:21:05;2.85;;;1.40;;
17365;SDS011;8800;50.118;9.900;2023-09-19T09:23:32;4.63;;;1.20;;
17365;SDS011;8800;50.118;9.900;2023-09-19T09:25:59;4.35;;;1.20;;
17365;SDS011;8800;50.118;9.900;2023-09-19T09:28:28;2.22;;;1.25;;
17365;SDS011;8800;50.118;9.900;2023-09-19T09:30:57;5.60;;;1.27;;
17365;SDS011;8800;50.118;9.900;2023-09-19T09:33:24;5.28;;;1.40;;
17365;SDS011;8800;50.118;9.900;2023-09-19T09:35:51;2.35;;;1.30;;
17365;SDS011;8800;50.118;9.900;2023-09-19T09:38:19;2.55;;;1.23;;
17365;SDS011;8800;50.118;9.900;2023-09-19T09:40:46;3.45;;;1.20;;
17365;SDS011;8800;50.118;9.900;2023-09-19T09:43:25;5.18;;;1.65;;
17365;SDS011;8800;50.118;9.900;2023-09-19T09:46:06;6.03;;;1.42;;
17365;SDS011;8800;50.118;9.900;2023-09-19T09:48:37;6.78;;;1.58;;
17365;SDS011;8800;50.118;9.900;2023-09-19T09:51:04;3.03;;;1.50;;
17365;SDS011;8800;50.118;9.900;2023-09-19T09:53:33;4.90;;;1.50;;
17365;SDS011;8800;50.118;9.900;2023-09-19T09:56:00;4.85;;;1.55;;
17365;SDS011;8800;50.118;9.900;2023-09-19T09:58:28;4.18;;;1.70;;
17365;SDS011;8800;50.118;9.900;2023-09-19T10:00:57;4.55;;;1.50;;
17365;SDS011;8800;50.118;9.900;2023-09-19T10:03:35;4.40;;;1.63;;
17365;SDS011;8800;50.118;9.900;2023-09-19T10:06:05;3.90;;;1.60;;
17365;SDS011;8800;50.118;9.900;2023-09-19T10:09:02;4.68;;;1.50;;
17365;SDS011;8800;50.118;9.900;2023-09-19T10:11:38;5.75;;;1.60;;
17365;SDS011;8800;50.118;9.900;2023-09-19T10:14:08;3.08;;;1.63;;
17365;SDS011;8800;50.118;9.900;2023-09-19T10:16:38;4.63;;;1.52;;
17365;SDS011;8800;50.118;9.900;2023-09-19T10:19:07;7.22;;;1.70;;
17365;SDS011;8800;50.118;9.900;2023-09-19T10:21:36;5.45;;;1.98;;
17365;SDS011;8800;50.118;9.900;2023-09-19T10:24:03;4.30;;;1.75;;
17365;SDS011;8800;50.118;9.900;2023-09-19T10:26:33;4.25;;;1.40;;
17365;SDS011;8800;50.118;9.900;2023-09-19T10:29:01;4.30;;;1.58;;
17365;SDS011;8800;50.118;9.900;2023-09-19T10:31:32;7.25;;;1.40;;
17365;SDS011;8800;50.118;9.900;2023-09-19T10:34:01;8.07;;;1.70;;
17365;SDS011;8800;50.118;9.900;2023-09-19T10:36:31;4.20;;;1.70;;
17365;SDS011;8800;50.118;9.900;2023-09-19T10:38:59;4.78;;;1.60;;
17365;SDS011;8800;50.118;9.900;2023-09-19T10:41:27;5.28;;;1.60;;
17365;SDS011;8800;50.118;9.900;2023-09-19T10:43:55;6.53;;;2.13;;
17365;SDS011;8800;50.118;9.900;2023-09-19T10:46:25;5.43;;;1.83;;
17365;SDS011;8800;50.118;9.900;2023-09-19T10:48:51;3.60;;;1.48;;
17365;SDS011;8800;50.118;9.900;2023-09-19T10:51:22;6.97;;;1.65;;
17365;SDS011;8800;50.118;9.900;2023-09-19T10:53:52;5.13;;;1.60;;
17365;SDS011;8800;50.118;9.900;2023-09-19T10:56:21;3.42;;;1.40;;
17365;SDS011;8800;50.118;9.900;2023-09-19T10:58:53;3.55;;;1.60;;
17365;SDS011;8800;50.118;9.900;2023-09-19T11:01:40;4.95;;;1.77;;
17365;SDS011;8800;50.118;9.900;2023-09-19T11:06:59;3.88;;;1.70;;
17365;SDS011;8800;50.118;9.900;2023-09-19T11:09:27;5.18;;;1.60;;
17365;SDS011;8800;50.118;9.900;2023-09-19T11:12:09;4.10;;;1.83;;
17365;SDS011;8800;50.118;9.900;2023-09-19T11:14:41;3.17;;;1.60;;
17365;SDS011;8800;50.118;9.900;2023-09-19T11:25:49;3.70;;;1.80;;
17365;SDS011;8800;50.118;9.900;2023-09-19T11:28:27;2.83;;;1.70;;
17365;SDS011;8800;50.118;9.900;2023-09-19T11:30:56;4.72;;;1.88;;
17365;SDS011;8800;50.118;9.900;2023-09-19T11:33:25;4.63;;;1.63;;
17365;SDS011;8800;50.118;9.900;2023-09-19T11:35:59;5.93;;;1.75;;
17365;SDS011;8800;50.118;9.900;2023-09-19T11:46:52;5.78;;;1.85;;
17365;SDS011;8800;50.118;9.900;2023-09-19T11:49:25;5.00;;;1.80;;
17365;SDS011;8800;50.118;9.900;2023-09-19T11:51:57;6.00;;;2.15;;
17365;SDS011;8800;50.118;9.900;2023-09-19T11:54:24;6.38;;;1.52;;
17365;SDS011;8800;50.118;9.900;2023-09-19T11:56:53;6.03;;;2.00;;
17365;SDS011;8800;50.118;9.900;2023-09-19T11:59:21;5.70;;;1.73;;
17365;SDS011;8800;50.118;9.900;2023-09-19T12:01:50;3.53;;;1.70;;
17365;SDS011;8800;50.118;9.900;2023-09-19T12:04:19;6.13;;;1.88;;
17365;SDS011;8800;50.118;9.900;2023-09-19T12:06:56;4.88;;;1.80;;
17365;SDS011;8800;50.118;9.900;2023-09-19T12:09:23;7.13;;;1.60;;
17365;SDS011;8800;50.118;9.900;2023-09-19T12:11:50;2.78;;;1.73;;
17365;SDS011;8800;50.118;9.900;2023-09-19T12:14:22;5.57;;;1.50;;
17365;SDS011;8800;50.118;9.900;2023-09-19T12:16:51;7.57;;;1.73;;
17365;SDS011;8800;50.118;9.900;2023-09-19T12:19:21;5.30;;;1.80;;
17365;SDS011;8800;50.118;9.900;2023-09-19T12:21:55;4.90;;;1.70;;
17365;SDS011;8800;50.118;9.900;2023-09-19T12:24:23;6.50;;;1.60;;
17365;SDS011;8800;50.118;9.900;2023-09-19T12:26:51;6.45;;;1.40;;
17365;SDS011;8800;50.118;9.900;2023-09-19T12:29:19;3.83;;;1.70;;
17365;SDS011;8800;50.118;9.900;2023-09-19T12:31:51;5.45;;;1.52;;
17365;SDS011;8800;50.118;9.900;2023-09-19T12:34:25;3.83;;;1.40;;
17365;SDS011;8800;50.118;9.900;2023-09-19T12:37:06;3.28;;;1.40;;
17365;SDS011;8800;50.118;9.900;2023-09-19T12:39:37;4.30;;;1.40;;
17365;SDS011;8800;50.118;9.900;2023-09-19T12:42:03;5.68;;;1.73;;
17365;SDS011;8800;50.118;9.900;2023-09-19T12:44:34;5.30;;;1.75;;
17365;SDS011;8800;50.118;9.900;2023-09-19T12:47:02;4.07;;;1.33;;
17365;SDS011;8800;50.118;9.900;2023-09-19T12:49:34;2.67;;;1.50;;
17365;SDS011;8800;50.118;9.900;2023-09-19T12:52:01;4.85;;;1.60;;
17365;SDS011;8800;50.118;9.900;2023-09-19T12:54:37;4.13;;;1.38;;
17365;SDS011;8800;50.118;9.900;2023-09-19T12:57:04;3.80;;;1.48;;
17365;SDS011;8800;50.118;9.900;2023-09-19T12:59:31;4.00;;;1.20;;
17365;SDS011;8800;50.118;9.900;2023-09-19T13:02:04;5.95;;;1.80;;
17365;SDS011;8800;50.118;9.900;2023-09-19T13:04:32;4.35;;;1.35;;
17365;SDS011;8800;50.118;9.900;2023-09-19T13:06:59;4.97;;;1.63;;
17365;SDS011;8800;50.118;9.900;2023-09-19T13:09:26;5.18;;;1.73;;
17365;SDS011;8800;50.118;9.900;2023-09-19T13:11:59;5.20;;;1.60;;
17365;SDS011;8800;50.118;9.900;2023-09-19T13:14:27;3.60;;;1.60;;
17365;SDS011;8800;50.118;9.900;2023-09-19T13:16:57;4.93;;;1.42;;
17365;SDS011;8800;50.118;9.900;2023-09-19T13:19:36;6.43;;;1.60;;
17365;SDS011;8800;50.118;9.900;2023-09-19T13:22:04;3.72;;;1.52;;
17365;SDS011;8800;50.118;9.900;2023-09-19T13:24:33;4.95;;;1.45;;
17365;SDS011;8800;50.118;9.900;2023-09-19T13:27:05;5.80;;;1.77;;
17365;SDS011;8800;50.118;9.900;2023-09-19T13:29:32;4.47;;;1.40;;
17365;SDS011;8800;50.118;9.900;2023-09-19T13:31:58;4.53;;;1.90;;
17365;SDS011;8800;50.118;9.900;2023-09-19T13:34:25;7.25;;;1.90;;
17365;SDS011;8800;50.118;9.900;2023-09-19T13:36:55;5.40;;;1.77;;
17365;SDS011;8800;50.118;9.900;2023-09-19T13:39:23;4.75;;;1.65;;
17365;SDS011;8800;50.118;9.900;2023-09-19T13:41:50;4.32;;;1.50;;
17365;SDS011;8800;50.118;9.900;2023-09-19T13:44:16;2.95;;;1.40;;
17365;SDS011;8800;50.118;9.900;2023-09-19T13:46:43;4.13;;;1.58;;
17365;SDS011;8800;50.118;9.900;2023-09-19T13:49:11;4.10;;;1.80;;
17365;SDS011;8800;50.118;9.900;2023-09-19T13:51:38;4.05;;;1.52;;
17365;SDS011;8800;50.118;9.900;2023-09-19T13:54:10;3.30;;;1.40;;
17365;SDS011;8800;50.118;9.900;2023-09-19T13:56:37;6.18;;;1.50;;
17365;SDS011;8800;50.118;9.900;2023-09-19T13:59:04;5.75;;;1.40;;
17365;SDS011;8800;50.118;9.900;2023-09-19T14:01:30;5.47;;;1.73;;
17365;SDS011;8800;50.118;9.900;2023-09-19T14:03:57;3.55;;;1.55;;
17365;SDS011;8800;50.118;9.900;2023-09-19T14:06:23;5.47;;;1.60;;
17365;SDS011;8800;50.118;9.900;2023-09-19T14:08:50;5.30;;;1.65;;
17365;SDS011;8800;50.118;9.900;2023-09-19T14:11:18;4.40;;;1.50;;
17365;SDS011;8800;50.118;9.900;2023-09-19T14:13:45;4.60;;;1.50;;
17365;SDS011;8800;50.118;9.900;2023-09-19T14:16:14;3.85;;;1.65;;
17365;SDS011;8800;50.118;9.900;2023-09-19T14:18:40;4.22;;;1.50;;
17365;SDS011;8800;50.118;9.900;2023-09-19T14:21:07;2.60;;;1.25;;
17365;SDS011;8800;50.118;9.900;2023-09-19T14:23:36;5.35;;;1.73;;
17365;SDS011;8800;50.118;9.900;2023-09-19T14:26:03;4.47;;;1.55;;
17365;SDS011;8800;50.118;9.900;2023-09-19T14:28:32;4.07;;;1.50;;
17365;SDS011;8800;50.118;9.900;2023-09-19T14:31:03;3.95;;;1.52;;
17365;SDS011;8800;50.118;9.900;2023-09-19T14:33:30;6.40;;;1.58;;
17365;SDS011;8800;50.118;9.900;2023-09-19T14:35:56;4.57;;;1.60;;
17365;SDS011;8800;50.118;9.900;2023-09-19T14:38:23;3.88;;;1.50;;
17365;SDS011;8800;50.118;9.900;2023-09-19T14:40:58;2.30;;;1.40;;
17365;SDS011;8800;50.118;9.900;2023-09-19T14:43:25;3.08;;;1.20;;
17365;SDS011;8800;50.118;9.900;2023-09-19T14:45:53;3.72;;;1.40;;
17365;SDS011;8800;50.118;9.900;2023-09-19T14:48:19;3.30;;;1.58;;
17365;SDS011;8800;50.118;9.900;2023-09-19T14:50:48;2.10;;;1.30;;
17365;SDS011;8800;50.118;9.900;2023-09-19T14:53:16;3.35;;;1.52;;
17365;SDS011;8800;50.118;9.900;2023-09-19T14:55:43;4.15;;;1.20;;
17365;SDS011;8800;50.118;9.900;2023-09-19T14:58:10;1.92;;;1.23;;
17365;SDS011;8800;50.118;9.900;2023-09-19T15:00:37;3.90;;;1.58;;
17365;SDS011;8800;50.118;9.900;2023-09-19T15:03:05;4.90;;;1.30;;
17365;SDS011;8800;50.118;9.900;2023-09-19T15:05:32;4.15;;;1.13;;
17365;SDS011;8800;50.118;9.900;2023-09-19T15:07:59;4.90;;;1.50;;
17365;SDS011;8800;50.118;9.900;2023-09-19T15:10:27;3.42;;;1.33;;
17365;SDS011;8800;50.118;9.900;2023-09-19T15:12:55;2.95;;;1.40;;
17365;SDS011;8800;50.118;9.900;2023-09-19T15:15:21;3.50;;;1.60;;
17365;SDS011;8800;50.118;9.900;2023-09-19T15:17:48;5.03;;;1.30;;
17365;SDS011;8800;50.118;9.900;2023-09-19T15:20:15;2.80;;;1.25;;
17365;SDS011;8800;50.118;9.900;2023-09-19T15:22:43;3.60;;;1.20;;
17365;SDS011;8800;50.118;9.900;2023-09-19T15:25:09;5.82;;;1.50;;
17365;SDS011;8800;50.118;9.900;2023-09-19T15:27:36;4.57;;;1.30;;